Timeline UpdatesTrip UpdatesNews PostsPvt PostsTravel TipsAdmin PostsConv PostsFollowed PostsChat RequestsBlog PostsPNR Posts

Disclaimer
Search
 
 
Mon Sep 22, 2014 21:44:18 ISTHomeTrainsΣChainsAtlasPNRForumGalleryNewsFAQTripsMembersLoginFeedback
No Recent News for this Train
Other Trains in the News **new
Latest...
Temporary Stoppage at Mahadevsal Station every Sunday and Monday from 23.07.2013 to 21.08.2013 during Shravani Melaa
Tue Jul 23, 2013 (10:09AM)
⇐ Return Journey: Train# 18029

18030/Shalimar-Mumbai LTT [Kurla] Express

Time-Table HAS CHANGED.
Sep 03 (11:24AM)
Change Departure Station:
Change Arrival Station:
Post a Train Travel TipPost a Train Travel Tip **new
Post a Comment/Question/Picture/VideoPost a Comment/Question/Picture/Video
Pantry/Catering
✕ NO Pantry Car
✓ Catering Avbl
RSA - Rake Sharing
Rake/Coach Composition
LOCO-HCPV-HCPV-SLR-GS-S13-S12-S11-S10-S9-S8-S7-S6-S5-S4-S3-S2-S1-B1-A1-GS-SLR-HCPV-HCPV
Loco
HWH/SRC WAP-4
News    PNR    Forum    Time-Table    Availability    Fare Chart    Map    Arr/Dep History    Trips    Gallery    ΣChains    X/O    Timeline    
Travel Time: 0h 33m    0 halts    Distance: 39 km    Avg Speed: 70 km/hr
Type: Mail/Express
Zone: SER/South Eastern
Departs @ 17:50 (Avg 5m late)
Platform# ???
SMTWTFS
Kharagpur Junction/KGP 
Arrives @ 18:23 (Avg 6m late)
Platform# ???
SMTWTFS
Jhargram/JGM 

0 halts. 5 intermediate Stations between Kharagpur Junction and Jhargram

Show ALL intermediate Stations  Show Old Time-Table

#CodeStation NameX/OArrivesAvgDepartsAvgHaltPFDay#KmSpeedElevZoneAddress
1SHMKolkata Shalimar (2)  -15:00+111-112.3285mSERSHIBPUR . DIST- Howrah, West Bengal
2SRCKolkata Santragachi Junction (6)  15:11 15:10+515:12+71 2m11-107.6657mSERDist: Howrah - 711104, West Bengal
3ULBUluberia (6)XO  15:36 15:35+1015:37+131 2m11-82.85010mSERdist - howrah, West Bengal
4MCAMecheda (6)X  16:09 16:08+716:10+201 2m--1-56.82710mSERdist - purba Medinipur, West Bengal
5PKUPanskura Junction (6)X  16:39 16:38+616:40+201 2m--1-44.4489mSERPanskura, West Bengal
6KGPKharagpur Junction (10)»X  17:35+617:50+515m--10.07142mSERKharagpur, West Bengal
7JGMJhargram (4)•X  18:24 18:23+618:25+71 2m--139.18382mSERJhargram, West Bengal
8CKUChakulia (4)  18:47 18:46+218:48+31 2m--168.487126mSERChakulia, Jharkhand
9GTSGhatsila (3)  19:11 19:09+219:12 19:11+31 2m--198.960103mSEREast Singhbhum, Jharkhand
10GUDGaludih (4)  19:23 19:21+319:24 19:23+31 2m--1108.946120mSEREast Singhbhum, Jharkhand
11RHERakha Mines (2)  19:34 19:32+019:35 19:34+21 2m--1115.845118mSEREast Singhbhum, Jharkhand
12TATATatanagar Junction (5)X  20:05 20:00+820:10 20:05+105m--1135.156164mSER91-657-2423026, Jharkhand
13SINISini Junction (3)  20:36 20:34+1220:37 20:35+131m--1162.161182mSERNational Highway 33, Jharkhand
14RKSNRajkharsawan Junction (3)  20:53 20:50+1520:54 20:51+161m--1177.371189mSERSaraikela Kharswan District, Jharkhand
15CKPChakradharpur (3)X  21:11 21:08+1821:16 21:13+185m11197.379235mSERChakradharpur (West Singhbhum), Jharkhand
16SWRSonua  21:31 21:29+2121:32 21:30+221m--1218.364287mSERSonua, Jharkhand
17GOLGoilkera (2)X  21:44 21:42+2221:45 21:43+231m--1231.157333mSERGoilkera, Jharkhand
18MOUManoharpur  22:15 22:12+2122:16 22:13+221m--1258.674228mSERManoharpur, Jharkhand
19BNDMBondamunda (2)  22:42 22:40+2422:43 22:41+231m--1291.921213mSERRourkela, Odisha
20ROURourkela Junction (5)X  23:03 23:00+1723:13 23:10+1810m21298.469198mSERRourkela, Odisha
21GPRaj Gangpur (3)  23:40 23:36+2223:41 23:37+231m11328.269237mSERRaj Ganpur, Odisha
22BMBBamra (3)  00:09 00:07+2200:10 00:08+231m--2362.852259mSERBamra PH : 06642-229268, Odisha
23JSGJharsuguda Junction (5)X  00:50+1700:55+215m12399.388236mSERJharsuguda, Odisha
24BRJNBrajrajnagarX  01:04 01:03+2701:05+281 2m--2411.067212mSECRBrajrajnagar, Odisha
25BPHBelpahar  01:14 01:13+2801:15+291 2m--2419.985 SECRBelpahar, Odisha
26RIGRaigarh (3)  01:51+3401:56+375m--2471.093220mSECRRaigarh, Chhattisgarh
27KHSKharsia  02:19 02:18+4502:20+451 2m--2504.977 SECRNational Highway 200, Chhattisgarh
28SKTSakti (4)  02:33 02:32+4602:34+471 2m--2520.376237mSECRJanjgir-Champa, Chhattisgarh
29CPHChampa Junction (3)X  02:58+5003:03+485m--2550.772264mSECRNational Highway 200 (07819-245767), Chhattisgarh
30NIANailaX  03:13 03:12+4903:14+491 2m--2561.675273mSECRJanjgir, Chhattisgarh
31AKTAkaltara (4)  03:27 03:26+4803:28+491 2m--2576.529284mSECRDist. Janjgir Champa, Chhattisgarh
32BSPBilaspur Junction (8)  04:25+1804:45+2420m32603.849271mSECRBilaspur, Chhattisgarh
33BYLBelha  05:04+2205:05+231m--2619.380269mSECRCollege Road, Chhattisgarh
34BYTBhatapara (4)  05:29 05:28+2505:30+261 2m--2649.987270mSECRBanjari Road, Chhattisgarh
35TLDTilda (3)  05:49 05:48+2605:50+271 2m12676.051 SECRBanjari Rd, Chhattisgarh
36RRaipur Junction (6)X  06:35+2006:45+2310m12714.270297mSECRRaipur, Chhattisgarh
37DBECDevbaloda CharodaX  07:02-07:03-1m--2734.141310mSECRBhilai, Chhattisgarh
38BIABhilai (2)X  07:09 07:08+2407:10+251 2m--2737.546309mSECRBhilai, Chhattisgarh
39BPHBBhilai Power House (3)X  07:17 07:16+007:18+01 2m--2742.227312mSECRBhilai, Chhattisgarh
40BQRBhilai Nagar (2)  07:29 07:28+2107:30+211 2m--2746.618298mSECRBhilai, Chhattisgarh
41DURGDurg Junction (6)X  07:45+2707:55+2810m--2751.187299mSECRPh: 91-788-2322059, Chhattisgarh
42RJNRaj Nandgaon (3)  08:16+3808:21+385m--2781.682313mSECRRajnandgaon, Chhattisgarh
43DGGDongargarh (2)  08:44+4608:45+501m--2813.161 SECRDongargarh, Chhattisgarh
44SKSSalekasa (2)  09:21 09:20+5309:22+541 2m--2848.980312mSECRRajnandgaon, Chhattisgarh
45AGNAmgaon (2)  09:34 09:33+5409:35+561 2m--2863.646317mSECRGondia, Maharashtra
46GGondia Junction (7)X  10:05+4710:15+5310m--2886.492316mSECRGondia 441601, Maharashtra
47TROTirora (3)X  10:35 10:34+4910:36+501 2m--2915.772282mSECRDist Gondia, Maharashtra
48TMRTumsar Road (3)X  10:54 10:53+4710:55+481 2m--2936.067267mSECRBhandara, Maharashtra
49BRDBhandara Road (3)  11:12 11:11+5511:13+551 2m--2954.078266mSECRState Highway 252 Bhandara District, Maharashtra
50KPKamptee (3)X  11:51 11:50+4811:52+491 2m--21001.933290mSECRKamptee, Maharashtra
51ITRItwari (3)O  12:12 12:11+4712:13+531 2m--21012.44306mSECRNagpur, Maharashtra
52NGPNagpur Junction (8)X  13:15+2513:40+2425m721016.223314mCRNagpur 440001, Maharashtra
53AJNIAjni (3)  13:48+2113:49+221m--21019.282310mCRNagpur 440003, Maharashtra
54SNISindi (2)  14:21+2514:22+261m--21063.157258mCRWardha, Maharashtra
55SEGMSewagram Junction (5)X  14:53+2714:54+291m--21092.420279mCRWardha, Maharashtra
56WRWardha Junction (4)  15:02+2715:05+273m221095.184289mCRWardha 442001, Maharashtra
57PLOPulgaon Junction (3)  15:26+2915:27+301m221124.670273mCRPulgaon, Maharashtra
58DMNDhamangaon (2)  15:44+3215:45+331m--21144.663300mCRDhamangaon, Maharashtra
59CNDChandur (2)X  16:01+2716:02+281m--21161.330331mCRAmravati Distt, Maharashtra
60BDBadnera Junction (4)  17:00+917:05+115m121190.090335mCRBadnera (Amravati) 444701, Maharashtra
61MZRMurtizapur (3)X  17:33+2017:35+202m--21231.874303mCRMurtajapur, Maharashtra
62AKAkola Junction (7)  18:05+2118:10+225m121269.086284mCRAkola-444001, Maharashtra
63PSParas (2)  18:24+2518:25+251m--21289.074282mCRAkola, Maharashtra
64SEGShegaon (2)  18:39+2818:40+291m--21306.183281mCRShegaon 444203, Maharashtra
65JMJalamb Junction (3)X  18:49+3118:50+321m--21318.682259mCRJalamb, Maharashtra
66NNNandura (2)X  18:59+3319:00+351m--21330.870267mCRNandura, Maharashtra
67MKUMalkapur (2)X  19:24+3219:25+331m121358.762252mCRMalkapur, Maharashtra
68BDWDBodwad (2)X  19:44+3319:45+351m--21378.340294mCRBodwad, Maharashtra
69BSLBhusaval Junction (8)X  20:30+3420:45+3415m521408.660208mCRBhusaval 425201, Maharashtra
70JLJalgaon Junction (4)  21:09+2821:10+301m221432.784213mCRJalgaon 425001, Maharashtra
71PCPachora Junction (4)  21:44+3321:45+361m--21480.493264mCRPachora 424201, Maharashtra
72CSNChalisgaon Junction (3)  22:14+4022:15+421m--21525.387352mCRChalisgaon 424101, Maharashtra
73NGNNandgaon (3)  22:44+4522:45+471m--21567.461476mCRNandgaon, Maharashtra
74MMRManmad Junction (6)  23:12 23:10+4523:15+473 5m321592.877580mCRManmad 423104, Maharashtra
75LSLasalgaon (3)  23:34+4923:35+501m--21617.372592mCRLasalgaon, Maharashtra
76NKNasik Road (3)X  00:19 00:15+5000:20+511 5m331665.538563mCRNashik 422101, Maharashtra
77DVLDevlali (3)X  00:29+5200:30+541m231671.336561mCRDist. Nashik 422401, Maharashtra
78IGPIgatpuri (4)XO  01:49 01:45+2901:50+361 5m--31716.220589mCRIgatpuri 422403, Maharashtra
79KSRAKasara (4)XO  02:39 02:33+3302:40 02:35+371 2m--31730.658290mCRDist. Thane 421602, Maharashtra
80KYNKalyan Junction (8)O  03:50 03:45+4003:55 03:50+1:085m631798.06710mCRKalyan 421301, Maharashtra
81TNAThane (10)  04:09 04:08+3304:10+341 2m831818.22510mCRThane (West) 400602, Maharashtra
82LTTMumbai Lokmanya Tilak Terminus (5)  04:50+31-331834.7-7mCRMumbai - 400089, Maharashtra
Scroll to Top
Scroll to Bottom